Kazan International Airport


Codes: UWKD/KZN
Name: Kazan International Airport
City: Kazan
Country: Russia
Elevation: 411 ft.
Wikipedia:

Photos at Kazan International Airport


   Photos courtesy of SpottingLog. You can add your own sightings and photos by signing up for a free trial today.



VP-BTU, 08-May-2013
© Tobias Hottinger

VQ-BBN, 08-May-2013
© Tobias Hottinger

VP-BJH, 08-May-2013
© Tobias Hottinger

RA-42374, 07-May-2013
© Tobias Hottinger

RA-42347, 07-May-2013
© Tobias Hottinger

RA-42555, 07-May-2013
© Tobias Hottinger

RA-86576, 07-May-2013
© Tobias Hottinger

RA-87447, 07-May-2013
© Tobias Hottinger


Weather at Kazan International Airport


Time (UTC)DescriptionTempratureWindCloud coverageVisibilityPressureHumidity
15-Apr-2024 18:00Light Rain8°C13 mph, SW83%10000m995hPa88%
15-Apr-2024 21:00Light Rain7°C11 mph, SW92%10000m996hPa80%
16-Apr-2024 00:00Broken Clouds5°C11 mph, SW81%10000m998hPa77%
16-Apr-2024 03:00Light Rain5°C16 mph, SW85%8559m998hPa88%
16-Apr-2024 06:00Light Rain8°C18 mph, SW90%10000m998hPa71%
16-Apr-2024 09:00Light Rain9°C20 mph, W100%10000m1000hPa59%
16-Apr-2024 12:00Light Rain9°C16 mph, W98%10000m1002hPa61%
16-Apr-2024 15:00Overcast Clouds8°C13 mph, W100%10000m1004hPa70%
16-Apr-2024 18:00Broken Clouds6°C7 mph, SW75%10000m1006hPa84%
16-Apr-2024 21:00Overcast Clouds6°C9 mph, SW98%10000m1007hPa85%
17-Apr-2024 00:00Overcast Clouds5°C4 mph, SW98%10000m1008hPa80%
17-Apr-2024 03:00Overcast Clouds6°C7 mph, S100%10000m1008hPa82%
17-Apr-2024 06:00Overcast Clouds11°C13 mph, S100%10000m1007hPa61%
17-Apr-2024 09:00Broken Clouds13°C18 mph, S84%10000m1005hPa67%
17-Apr-2024 12:00Overcast Clouds16°C18 mph, S92%10000m1003hPa71%
17-Apr-2024 15:00Overcast Clouds18°C16 mph, S100%10000m1001hPa64%
17-Apr-2024 18:00Light Rain17°C13 mph, SW100%10000m1002hPa69%
17-Apr-2024 21:00Light Rain16°C13 mph, SW100%10000m1003hPa71%
18-Apr-2024 00:00Overcast Clouds13°C4 mph, SW100%10000m1004hPa85%
18-Apr-2024 03:00Overcast Clouds13°C2 mph, N100%10000m1006hPa87%
18-Apr-2024 06:00Light Rain13°C9 mph, N100%10000m1009hPa82%
18-Apr-2024 09:00Overcast Clouds15°C4 mph, N100%10000m1010hPa71%
18-Apr-2024 12:00Overcast Clouds18°C4 mph, NE100%10000m1011hPa63%
18-Apr-2024 15:00Overcast Clouds17°C7 mph, NE100%10000m1010hPa73%
18-Apr-2024 18:00Overcast Clouds14°C9 mph, E100%10000m1010hPa81%
18-Apr-2024 21:00Overcast Clouds13°C7 mph, SE100%10000m1010hPa73%
19-Apr-2024 00:00Overcast Clouds12°C9 mph, SE100%10000m1009hPa74%
19-Apr-2024 03:00Overcast Clouds13°C13 mph, S100%10000m1008hPa67%
19-Apr-2024 06:00Overcast Clouds17°C16 mph, S100%10000m1008hPa51%
19-Apr-2024 09:00Overcast Clouds21°C18 mph, S100%10000m1009hPa42%
19-Apr-2024 12:00Overcast Clouds22°C18 mph, S100%10000m1009hPa42%
19-Apr-2024 15:00Overcast Clouds19°C13 mph, S100%10000m1009hPa50%
19-Apr-2024 18:00Overcast Clouds16°C11 mph, S100%10000m1009hPa62%
19-Apr-2024 21:00Overcast Clouds15°C11 mph, S100%10000m1009hPa67%
20-Apr-2024 00:00Overcast Clouds13°C9 mph, S86%10000m1011hPa75%
20-Apr-2024 03:00Overcast Clouds14°C7 mph, SW87%10000m1014hPa84%
20-Apr-2024 06:00Overcast Clouds16°C13 mph, W89%10000m1017hPa60%
20-Apr-2024 09:00Overcast Clouds18°C13 mph, SW99%10000m1018hPa39%
20-Apr-2024 12:00Overcast Clouds18°C13 mph, SW100%10000m1020hPa37%
20-Apr-2024 15:00Overcast Clouds15°C9 mph, W100%10000m1021hPa50%